Skip to main content

NOAA/GLERL Met Station at Chicago, IL

Previous 5 days (top of hour only)
See also Previous 3 Hours (2 minute increments)
Jump down to Data
Switch to [English][Metric]
Zoom: Click and drag, Pan: shift-click and drag, Unzoom: double-click, Unzoom All




Note: Speed = mean wind during 2-minute period at top of hour,
Gust = max wind during 2-minute period at top of hour,
Peak = max wind during entire hour.
• See also 5-day windrose plot


NOAA/GLERL Met Station at Chicago, IL

Previous 5 days (top of hour only)
See also Previous 3 Hours (2 minute increments)
Jump up to Graphs
Switch to [English][Metric]
                  Wind  Wind  Wind   Air   Dew   Rel
                   Spd   Gst   Dir  Temp    Pt   Hum
YYYY-MM-DD   CST   kts   kts   deg     F     F     %
2023-01-30 21:00  15.0  17.3   314   9.3  -7.4  46.3
2023-01-30 20:00  17.1  19.4   317   9.3  -7.9  45.2
2023-01-30 19:00  14.0  16.5   317   9.9  -8.4  43.2
2023-01-30 18:00  14.4  15.6   306  11.3  -5.1  47.3
2023-01-30 17:00  12.8  17.1   298  12.0  -5.7  44.6
2023-01-30 16:00   9.3  14.8   310  13.1  -2.1  50.3
2023-01-30 15:00  12.8  15.4   311  12.7  -2.4  50.4
2023-01-30 14:00  15.6  16.9   298  12.7  -1.9  51.7
2023-01-30 13:00  10.1  11.7   325  12.9  -0.1  55.7
2023-01-30 12:00  14.6  16.5   315  12.6  -0.2  56.3
2023-01-30 11:00  12.2  14.6   312  11.8   0.0  58.8
2023-01-30 10:00  11.7  14.0   319  11.8   0.7  60.5
2023-01-30 09:00  13.6  16.7   321  12.2   0.4  58.9
2023-01-30 08:00  13.8  15.6   312  12.4   0.4  58.5
2023-01-30 07:00  13.6  17.1   325  13.6   0.4  55.2
2023-01-30 06:00  13.4  15.2   314  14.2   2.5  59.5
2023-01-30 05:00  11.9  14.0   318  15.3   8.9  75.7
2023-01-30 04:00  12.2  14.0   314  16.2  11.9  83.0
2023-01-30 03:00  13.2  14.8   312  17.4  13.6  84.8
2023-01-30 02:00  17.3  19.1   325  18.0  13.7  83.3
2023-01-30 01:00  14.2  17.1   320  18.9  15.6  86.9
2023-01-30 00:00  11.7  12.8   328  19.4  16.1  87.0
2023-01-29 23:00  14.2  16.1   327  21.2  17.6  85.8
2023-01-29 22:00  15.2  16.7   335  22.3  17.6  82.0
2023-01-29 21:00  14.4  16.3   332  23.0  19.2  85.3
2023-01-29 20:00  12.4  13.4   324  22.6  19.4  87.4
2023-01-29 19:00   9.7  11.9   330  24.3  18.7  79.0
2023-01-29 18:00  14.8  16.5   332  25.2  20.0  80.6
2023-01-29 17:00  16.3  18.3   341  25.0  20.0  81.0
2023-01-29 16:00  15.9  17.7   336  25.2  21.0  83.9
2023-01-29 15:00  15.6  17.5   347  25.0  21.3  85.9
2023-01-29 14:00  15.0  16.3   339  24.6  21.9  89.2
2023-01-29 13:00  12.2  14.0   337  24.1  22.2  92.4
2023-01-29 12:00  13.0  14.4   337  23.5  22.4  95.4
2023-01-29 11:00  12.4  14.0   342  24.1  23.4  97.3
2023-01-29 10:00  12.4  14.4   345  24.4  23.6  96.7
2023-01-29 09:00  13.8  15.4   335  24.6  23.7  96.4
2023-01-29 08:00  12.8  15.0   339  26.1  25.7  98.4
2023-01-29 07:00  12.8  15.0   336  26.8  26.4  98.5
2023-01-29 06:00  12.8  13.6   337  27.1  27.2 100.3
2023-01-29 05:00   9.5  11.1   341  29.1  28.5  97.5
2023-01-29 04:00   8.9  10.1     4  32.0  28.6  87.1
2023-01-29 03:00   8.6   9.5    12  31.6  31.7 100.2
2023-01-29 02:00   5.1   5.4    18  31.6  31.2  98.2
2023-01-29 01:00   5.4   5.8    24  31.5  31.2  99.0
2023-01-29 00:00   6.8   7.4    34  31.1  31.1 100.1
2023-01-28 23:00   8.0   8.6    49  30.7  30.4  98.5
2023-01-28 22:00  12.2  13.6    58  30.7  29.5  95.0
2023-01-28 21:00  16.1  17.9    72  30.9  28.5  90.7
2023-01-28 20:00  18.3  19.4    77  30.6  28.8  93.1
2023-01-28 19:00  16.9  18.1    72  31.6  27.6  84.8
2023-01-28 18:00  17.9  19.6    60  30.6  28.5  92.0
2023-01-28 17:00  15.6  17.1    45  29.5  28.0  94.1
2023-01-28 16:00  12.6  13.6    41  28.4  27.6  96.8
2023-01-28 15:00  13.2  15.4    62  27.3  25.7  93.4
2023-01-28 14:00  11.5  12.4    44  25.9  25.4  98.1
2023-01-28 13:00   8.0   9.3    72  24.4  23.8  97.4
2023-01-28 12:00   2.7   3.7    75  23.4  22.0  94.5
2023-01-28 11:00   1.6   2.5   192  23.7  19.1  82.4
2023-01-28 10:00   2.1   2.7   192  23.5  16.4  73.8
2023-01-28 09:00   2.5   3.7   265  22.6  15.2  72.9
2023-01-28 08:00   3.5   4.9   340  22.3  15.4  74.7
2023-01-28 07:00   6.8   7.6   331  22.1  14.3  71.8
2023-01-28 06:00   6.0   6.4   282  22.3  13.5  68.7
2023-01-28 05:00   5.1   5.8   300  22.1  13.8  70.0
2023-01-28 04:00   8.4  10.9   298  22.3  14.7  72.5
2023-01-28 03:00  12.6  15.2   283  22.6  15.3  73.2
2023-01-28 02:00  13.4  15.4   286  23.2  15.7  72.7
2023-01-28 01:00  17.1  18.7   275  23.9  16.6  73.4
2023-01-28 00:00  20.4  22.9   284  24.6  17.5  73.9
2023-01-27 23:00  20.0  24.5   271  25.5  18.4  74.0
2023-01-27 22:00  25.3  29.4   271  26.4  19.2  73.8
2023-01-27 21:00  23.9  28.8   264  28.6  21.9  75.8
2023-01-27 20:00  21.2  23.9   276  31.3  24.1  74.4
2023-01-27 19:00  31.3  34.8   264  33.6  24.7  69.5
2023-01-27 18:00  26.8  31.3   267  36.0  30.0  78.6
2023-01-27 17:00  16.7  21.4   242  36.7  33.5  88.1
2023-01-27 16:00  19.8  27.2   223  36.1  32.5  86.4
2023-01-27 15:00  19.6  23.7   225  34.7  32.0  89.8
2023-01-27 14:00  23.7  25.1   207  31.1  31.2 100.3
2023-01-27 13:00  28.2  33.6   205  31.1  28.8  91.1
2023-01-27 12:00  31.9  34.2   204  28.6  27.7  96.3
2023-01-27 11:00  33.8  38.1   198  28.8  22.4  76.7
2023-01-27 10:00  29.2  32.5   189  26.2  21.9  83.3
2023-01-27 09:00  32.1  35.8   188  24.4  18.4  77.4
2023-01-27 08:00  27.8  30.3   191  21.7  16.4  79.6
2023-01-27 07:00  26.8  29.2   186  20.1  15.3  81.2
2023-01-27 06:00  25.9  27.4   184  19.8  14.6  80.0
2023-01-27 05:00  17.9  19.8   189  18.1  13.7  82.6
2023-01-27 04:00  15.2  16.9   192  17.6  12.6  80.7
2023-01-27 03:00  20.8  22.9   201  17.1  10.5  75.1
2023-01-27 02:00  13.6  15.7   213  18.1   9.0  67.3
2023-01-27 01:00  15.0  16.9   262  17.2   9.4  70.9
2023-01-27 00:00  14.4  17.3   238  19.2  14.7  82.5
2023-01-26 23:00  12.2  14.6   246  20.7  16.3  83.0
2023-01-26 22:00  13.8  17.1   243  20.3  15.6  81.7
2023-01-26 21:00  15.2  17.7   254  20.7  17.1  86.0
2023-01-26 20:00  16.7  19.1   249  20.7  17.1  86.1
2023-01-26 19:00  19.1  23.3   260  20.8  17.4  86.3
2023-01-26 18:00  15.7  17.7   252  21.6  18.8  88.8